Terminal Aerodrome Forecast
Issued by NWS Charleston, WV

Current Version | Previous Version | Graphics & Text | Print | Product List | Glossary On
Versions: 1 2 3 4 5 6 7 8 9 10 11 12 13 14 15 16 17 18 19 20 21 22 23 24 25 26
000
FTUS41 KRLX 292335
TAFEKN
TAF
KEKN 292335Z 3000/3024 28004KT P6SM VCSH SCT045
     FM300500 20004KT P6SM BKN030
     FM300700 VRB03KT 5SM BR VCTS BKN035CB
     FM301000 VRB03KT 3SM BR VCTS BKN025CB
     FM301400 29004KT P6SM BKN020
     FM301900 29008KT P6SM BKN030
     FM302000 30008KT P6SM SCT040=

USA.gov is the U.S. government's official web portal to all federal, state and local government web resources and services.